sensor_id;sensor_type;location;lat;lon;timestamp;pressure;altitude;pressure_sealevel;temperature;humidity
50310;BME280;36207;51.850;21.698;2023-07-20T00:00:51;99122.08;;;16.62;53.90
50310;BME280;36207;51.850;21.698;2023-07-20T00:03:30;99123.65;;;16.57;53.96
50310;BME280;36207;51.850;21.698;2023-07-20T00:05:56;99113.64;;;16.49;54.09
50310;BME280;36207;51.850;21.698;2023-07-20T00:08:22;99111.27;;;16.44;54.29
50310;BME280;36207;51.850;21.698;2023-07-20T00:10:48;99107.10;;;16.41;54.60
50310;BME280;36207;51.850;21.698;2023-07-20T00:13:14;99104.02;;;16.40;54.41
50310;BME280;36207;51.850;21.698;2023-07-20T00:15:41;99103.98;;;16.41;54.25
50310;BME280;36207;51.850;21.698;2023-07-20T00:18:07;99100.44;;;16.44;54.55
50310;BME280;36207;51.850;21.698;2023-07-20T00:20:33;99095.25;;;16.49;54.52
50310;BME280;36207;51.850;21.698;2023-07-20T00:22:59;99088.57;;;16.55;54.49
50310;BME280;36207;51.850;21.698;2023-07-20T00:25:25;99081.54;;;16.60;54.62
50310;BME280;36207;51.850;21.698;2023-07-20T00:27:51;99077.08;;;16.63;54.48
50310;BME280;36207;51.850;21.698;2023-07-20T00:30:18;99076.55;;;16.64;54.72
50310;BME280;36207;51.850;21.698;2023-07-20T00:32:44;99080.50;;;16.64;54.48
50310;BME280;36207;51.850;21.698;2023-07-20T00:35:11;99073.54;;;16.64;54.84
50310;BME280;36207;51.850;21.698;2023-07-20T00:37:38;99073.52;;;16.63;55.15
50310;BME280;36207;51.850;21.698;2023-07-20T00:40:05;99075.05;;;16.59;55.14
50310;BME280;36207;51.850;21.698;2023-07-20T00:42:33;99069.08;;;16.53;55.09
50310;BME280;36207;51.850;21.698;2023-07-20T00:44:59;99062.80;;;16.48;55.16
50310;BME280;36207;51.850;21.698;2023-07-20T00:47:25;99060.88;;;16.43;55.24
50310;BME280;36207;51.850;21.698;2023-07-20T00:49:52;99054.23;;;16.40;55.40
50310;BME280;36207;51.850;21.698;2023-07-20T00:52:20;99050.18;;;16.39;55.36
50310;BME280;36207;51.850;21.698;2023-07-20T00:54:47;99046.25;;;16.39;55.42
50310;BME280;36207;51.850;21.698;2023-07-20T00:57:15;99043.70;;;16.39;55.62
50310;BME280;36207;51.850;21.698;2023-07-20T00:59:42;99039.31;;;16.38;55.40
50310;BME280;36207;51.850;21.698;2023-07-20T01:02:08;99042.51;;;16.36;55.58
50310;BME280;36207;51.850;21.698;2023-07-20T01:04:35;99046.23;;;16.34;55.39
50310;BME280;36207;51.850;21.698;2023-07-20T01:09:42;99047.67;;;16.33;55.64
50310;BME280;36207;51.850;21.698;2023-07-20T01:15:10;99055.85;;;16.26;56.11
50310;BME280;36207;51.850;21.698;2023-07-20T01:17:36;99054.94;;;16.16;56.00
50310;BME280;36207;51.850;21.698;2023-07-20T01:20:02;99058.25;;;16.06;56.24
50310;BME280;36207;51.850;21.698;2023-07-20T01:22:56;99054.65;;;15.98;56.28
50310;BME280;36207;51.850;21.698;2023-07-20T01:31:23;99050.41;;;15.81;56.59
50310;BME280;36207;51.850;21.698;2023-07-20T01:33:53;99050.95;;;15.81;56.51
50310;BME280;36207;51.850;21.698;2023-07-20T01:36:22;99049.54;;;15.83;56.71
50310;BME280;36207;51.850;21.698;2023-07-20T01:38:51;99050.30;;;15.89;56.64
50310;BME280;36207;51.850;21.698;2023-07-20T01:41:18;99046.80;;;15.94;56.76
50310;BME280;36207;51.850;21.698;2023-07-20T01:43:44;99048.95;;;15.96;56.85
50310;BME280;36207;51.850;21.698;2023-07-20T01:46:10;99050.13;;;15.96;56.87
50310;BME280;36207;51.850;21.698;2023-07-20T01:48:36;99049.17;;;15.94;56.90
50310;BME280;36207;51.850;21.698;2023-07-20T01:51:02;99048.17;;;15.92;56.99
50310;BME280;36207;51.850;21.698;2023-07-20T01:53:28;99044.71;;;15.92;57.11
50310;BME280;36207;51.850;21.698;2023-07-20T01:55:55;99043.59;;;15.90;57.00
50310;BME280;36207;51.850;21.698;2023-07-20T01:58:22;99046.20;;;15.88;57.05
50310;BME280;36207;51.850;21.698;2023-07-20T02:00:48;99055.02;;;15.85;57.26
50310;BME280;36207;51.850;21.698;2023-07-20T02:03:14;99058.92;;;15.82;57.28
50310;BME280;36207;51.850;21.698;2023-07-20T02:05:43;99062.33;;;15.80;57.40
50310;BME280;36207;51.850;21.698;2023-07-20T02:08:09;99071.55;;;15.78;57.48
50310;BME280;36207;51.850;21.698;2023-07-20T02:10:36;99078.41;;;15.77;57.64
50310;BME280;36207;51.850;21.698;2023-07-20T02:13:02;99089.88;;;15.77;58.00
50310;BME280;36207;51.850;21.698;2023-07-20T02:15:28;99101.80;;;15.75;58.24
50310;BME280;36207;51.850;21.698;2023-07-20T02:17:54;99108.73;;;15.72;58.21
50310;BME280;36207;51.850;21.698;2023-07-20T02:20:20;99106.58;;;15.70;58.40
50310;BME280;36207;51.850;21.698;2023-07-20T02:22:47;99102.23;;;15.69;58.42
50310;BME280;36207;51.850;21.698;2023-07-20T02:25:13;99093.46;;;15.74;58.46
50310;BME280;36207;51.850;21.698;2023-07-20T02:27:39;99089.16;;;15.78;58.67
50310;BME280;36207;51.850;21.698;2023-07-20T02:30:05;99093.46;;;15.83;58.58
50310;BME280;36207;51.850;21.698;2023-07-20T02:32:32;99093.67;;;15.86;58.57
50310;BME280;36207;51.850;21.698;2023-07-20T02:34:58;99093.35;;;15.91;58.29
50310;BME280;36207;51.850;21.698;2023-07-20T02:37:24;99089.90;;;15.95;58.13
50310;BME280;36207;51.850;21.698;2023-07-20T02:39:50;99079.02;;;15.99;58.22
50310;BME280;36207;51.850;21.698;2023-07-20T02:42:16;99069.42;;;16.02;58.16
50310;BME280;36207;51.850;21.698;2023-07-20T02:44:42;99075.48;;;16.06;58.41
50310;BME280;36207;51.850;21.698;2023-07-20T02:47:09;99072.98;;;16.10;58.60
50310;BME280;36207;51.850;21.698;2023-07-20T02:49:35;99073.98;;;16.13;58.72
50310;BME280;36207;51.850;21.698;2023-07-20T02:52:00;99077.39;;;16.15;58.75
50310;BME280;36207;51.850;21.698;2023-07-20T02:54:29;99088.59;;;16.18;58.59
50310;BME280;36207;51.850;21.698;2023-07-20T02:56:56;99092.69;;;16.20;58.45
50310;BME280;36207;51.850;21.698;2023-07-20T02:59:22;99096.02;;;16.22;58.66
50310;BME280;36207;51.850;21.698;2023-07-20T03:01:48;99095.84;;;16.24;58.76
50310;BME280;36207;51.850;21.698;2023-07-20T03:04:14;99099.78;;;16.28;59.01
50310;BME280;36207;51.850;21.698;2023-07-20T03:06:42;99099.15;;;16.31;58.93
50310;BME280;36207;51.850;21.698;2023-07-20T03:09:08;99099.91;;;16.36;58.58
50310;BME280;36207;51.850;21.698;2023-07-20T03:11:35;99107.31;;;16.41;58.80
50310;BME280;36207;51.850;21.698;2023-07-20T03:14:00;99105.13;;;16.44;58.74
50310;BME280;36207;51.850;21.698;2023-07-20T03:16:26;99103.41;;;16.47;58.66
50310;BME280;36207;51.850;21.698;2023-07-20T03:18:52;99103.20;;;16.50;58.58
50310;BME280;36207;51.850;21.698;2023-07-20T03:21:19;99105.69;;;16.53;58.57
50310;BME280;36207;51.850;21.698;2023-07-20T03:23:45;99096.30;;;16.56;58.60
50310;BME280;36207;51.850;21.698;2023-07-20T03:26:11;99089.45;;;16.58;58.64
50310;BME280;36207;51.850;21.698;2023-07-20T03:28:38;99088.83;;;16.60;58.65
50310;BME280;36207;51.850;21.698;2023-07-20T03:31:05;99089.59;;;16.63;58.93
50310;BME280;36207;51.850;21.698;2023-07-20T03:33:31;99086.30;;;16.66;59.13
50310;BME280;36207;51.850;21.698;2023-07-20T03:35:58;99080.80;;;16.69;58.95
50310;BME280;36207;51.850;21.698;2023-07-20T03:38:25;99075.54;;;16.73;58.72
50310;BME280;36207;51.850;21.698;2023-07-20T03:40:56;99072.89;;;16.78;59.01
50310;BME280;36207;51.850;21.698;2023-07-20T03:43:24;99079.76;;;16.81;58.79
50310;BME280;36207;51.850;21.698;2023-07-20T03:45:51;99082.66;;;16.83;59.01
50310;BME280;36207;51.850;21.698;2023-07-20T03:48:19;99082.98;;;16.83;58.91
50310;BME280;36207;51.850;21.698;2023-07-20T03:50:47;99088.59;;;16.84;58.65
50310;BME280;36207;51.850;21.698;2023-07-20T03:53:13;99100.21;;;16.85;58.82
50310;BME280;36207;51.850;21.698;2023-07-20T03:55:41;99101.30;;;16.86;58.75
50310;BME280;36207;51.850;21.698;2023-07-20T03:58:07;99107.84;;;16.87;58.64
50310;BME280;36207;51.850;21.698;2023-07-20T04:00:34;99108.45;;;16.85;58.85
50310;BME280;36207;51.850;21.698;2023-07-20T04:03:01;99112.48;;;16.85;58.83
50310;BME280;36207;51.850;21.698;2023-07-20T04:05:27;99116.45;;;16.86;58.75
50310;BME280;36207;51.850;21.698;2023-07-20T04:07:53;99123.33;;;16.90;58.95
50310;BME280;36207;51.850;21.698;2023-07-20T04:10:19;99127.05;;;16.93;59.15
50310;BME280;36207;51.850;21.698;2023-07-20T04:12:45;99129.78;;;16.94;59.53
50310;BME280;36207;51.850;21.698;2023-07-20T04:15:13;99135.83;;;16.95;59.48
50310;BME280;36207;51.850;21.698;2023-07-20T04:17:40;99144.18;;;16.95;59.38
50310;BME280;36207;51.850;21.698;2023-07-20T04:20:09;99148.23;;;16.98;59.70
50310;BME280;36207;51.850;21.698;2023-07-20T04:22:35;99152.58;;;17.01;60.06
50310;BME280;36207;51.850;21.698;2023-07-20T04:25:01;99152.98;;;17.02;60.05
50310;BME280;36207;51.850;21.698;2023-07-20T04:27:27;99154.04;;;17.03;60.24
50310;BME280;36207;51.850;21.698;2023-07-20T04:29:53;99151.77;;;17.04;59.94
50310;BME280;36207;51.850;21.698;2023-07-20T04:32:19;99162.10;;;17.05;59.88
50310;BME280;36207;51.850;21.698;2023-07-20T04:34:45;99166.32;;;17.08;59.89
50310;BME280;36207;51.850;21.698;2023-07-20T04:37:11;99173.70;;;17.10;60.06
50310;BME280;36207;51.850;21.698;2023-07-20T04:39:37;99177.92;;;17.12;60.29
50310;BME280;36207;51.850;21.698;2023-07-20T04:42:03;99180.10;;;17.13;60.62
50310;BME280;36207;51.850;21.698;2023-07-20T04:44:29;99185.95;;;17.11;60.89
50310;BME280;36207;51.850;21.698;2023-07-20T04:46:55;99197.30;;;17.10;60.87
50310;BME280;36207;51.850;21.698;2023-07-20T04:49:21;99208.64;;;17.10;60.75
50310;BME280;36207;51.850;21.698;2023-07-20T04:51:47;99214.33;;;17.11;60.70
50310;BME280;36207;51.850;21.698;2023-07-20T04:54:13;99220.92;;;17.11;60.78
50310;BME280;36207;51.850;21.698;2023-07-20T04:56:39;99230.13;;;17.07;60.63
50310;BME280;36207;51.850;21.698;2023-07-20T04:59:05;99235.06;;;17.03;60.73
50310;BME280;36207;51.850;21.698;2023-07-20T05:01:31;99241.80;;;17.00;60.93
50310;BME280;36207;51.850;21.698;2023-07-20T05:03:57;99254.21;;;16.98;60.92
50310;BME280;36207;51.850;21.698;2023-07-20T05:06:23;99258.14;;;16.94;60.97
50310;BME280;36207;51.850;21.698;2023-07-20T05:08:49;99261.60;;;16.90;61.06
50310;BME280;36207;51.850;21.698;2023-07-20T05:11:14;99272.73;;;16.85;61.04
50310;BME280;36207;51.850;21.698;2023-07-20T05:13:40;99283.09;;;16.81;61.47
50310;BME280;36207;51.850;21.698;2023-07-20T05:16:06;99286.00;;;16.77;61.51
50310;BME280;36207;51.850;21.698;2023-07-20T05:18:33;99287.92;;;16.75;61.58
50310;BME280;36207;51.850;21.698;2023-07-20T05:20:59;99291.89;;;16.72;61.59
50310;BME280;36207;51.850;21.698;2023-07-20T05:23:25;99291.96;;;16.71;62.01
50310;BME280;36207;51.850;21.698;2023-07-20T05:26:00;99294.25;;;16.67;62.03
50310;BME280;36207;51.850;21.698;2023-07-20T05:28:26;99298.55;;;16.63;62.08
50310;BME280;36207;51.850;21.698;2023-07-20T05:30:53;99292.86;;;16.60;62.31
50310;BME280;36207;51.850;21.698;2023-07-20T05:33:20;99294.66;;;16.58;62.30
50310;BME280;36207;51.850;21.698;2023-07-20T05:35:47;99296.59;;;16.55;62.29
50310;BME280;36207;51.850;21.698;2023-07-20T05:38:13;99294.73;;;16.52;62.61
50310;BME280;36207;51.850;21.698;2023-07-20T05:40:44;99291.84;;;16.50;62.43
50310;BME280;36207;51.850;21.698;2023-07-20T05:43:10;99288.29;;;16.48;62.45
50310;BME280;36207;51.850;21.698;2023-07-20T05:45:37;99290.06;;;16.47;62.72
50310;BME280;36207;51.850;21.698;2023-07-20T05:48:03;99287.52;;;16.45;62.88
50310;BME280;36207;51.850;21.698;2023-07-20T05:50:30;99288.34;;;16.43;62.93
50310;BME280;36207;51.850;21.698;2023-07-20T05:52:56;99289.98;;;16.42;63.08
50310;BME280;36207;51.850;21.698;2023-07-20T05:55:22;99292.52;;;16.42;63.05
50310;BME280;36207;51.850;21.698;2023-07-20T05:57:47;99289.73;;;16.42;63.15
50310;BME280;36207;51.850;21.698;2023-07-20T06:00:15;99285.95;;;16.45;63.58
50310;BME280;36207;51.850;21.698;2023-07-20T06:02:41;99285.83;;;16.47;63.57
50310;BME280;36207;51.850;21.698;2023-07-20T06:05:08;99287.48;;;16.47;63.60
50310;BME280;36207;51.850;21.698;2023-07-20T06:07:38;99284.45;;;16.47;63.46
50310;BME280;36207;51.850;21.698;2023-07-20T06:10:05;99282.69;;;16.48;63.69
50310;BME280;36207;51.850;21.698;2023-07-20T06:12:32;99280.78;;;16.51;64.18
50310;BME280;36207;51.850;21.698;2023-07-20T06:15:05;99275.89;;;16.53;64.24
50310;BME280;36207;51.850;21.698;2023-07-20T06:17:31;99267.60;;;16.53;64.50
50310;BME280;36207;51.850;21.698;2023-07-20T06:19:57;99263.67;;;16.54;63.95
50310;BME280;36207;51.850;21.698;2023-07-20T06:22:23;99257.73;;;16.56;64.35
50310;BME280;36207;51.850;21.698;2023-07-20T06:24:49;99250.04;;;16.59;64.39
50310;BME280;36207;51.850;21.698;2023-07-20T06:27:15;99244.48;;;16.61;64.35
50310;BME280;36207;51.850;21.698;2023-07-20T06:29:41;99229.74;;;16.63;64.58
50310;BME280;36207;51.850;21.698;2023-07-20T06:32:08;99224.83;;;16.65;64.50
50310;BME280;36207;51.850;21.698;2023-07-20T06:34:34;99215.50;;;16.70;64.61
50310;BME280;36207;51.850;21.698;2023-07-20T06:37:04;99210.85;;;16.76;64.50
50310;BME280;36207;51.850;21.698;2023-07-20T06:39:30;99206.48;;;16.79;64.56
50310;BME280;36207;51.850;21.698;2023-07-20T06:41:56;99207.63;;;16.80;64.52
50310;BME280;36207;51.850;21.698;2023-07-20T06:44:22;99205.23;;;16.81;64.85
50310;BME280;36207;51.850;21.698;2023-07-20T06:46:48;99207.02;;;16.84;64.65
50310;BME280;36207;51.850;21.698;2023-07-20T06:49:25;99203.42;;;16.90;64.64
50310;BME280;36207;51.850;21.698;2023-07-20T06:51:51;99208.98;;;16.99;65.07
50310;BME280;36207;51.850;21.698;2023-07-20T06:54:18;99211.77;;;17.07;65.02
50310;BME280;36207;51.850;21.698;2023-07-20T06:56:44;99213.23;;;17.14;64.91
50310;BME280;36207;51.850;21.698;2023-07-20T06:59:09;99213.02;;;17.20;64.83
50310;BME280;36207;51.850;21.698;2023-07-20T07:01:35;99208.81;;;17.26;64.99
50310;BME280;36207;51.850;21.698;2023-07-20T07:04:01;99206.50;;;17.31;65.03
50310;BME280;36207;51.850;21.698;2023-07-20T07:06:28;99202.52;;;17.37;65.16
50310;BME280;36207;51.850;21.698;2023-07-20T07:08:54;99198.95;;;17.41;64.99
50310;BME280;36207;51.850;21.698;2023-07-20T07:11:23;99204.45;;;17.45;65.09
50310;BME280;36207;51.850;21.698;2023-07-20T07:13:50;99203.08;;;17.46;64.97
50310;BME280;36207;51.850;21.698;2023-07-20T07:16:17;99200.16;;;17.50;65.06
50310;BME280;36207;51.850;21.698;2023-07-20T07:18:46;99200.22;;;17.53;65.06
50310;BME280;36207;51.850;21.698;2023-07-20T07:21:12;99205.35;;;17.56;65.19
50310;BME280;36207;51.850;21.698;2023-07-20T07:23:39;99214.48;;;17.60;65.30
50310;BME280;36207;51.850;21.698;2023-07-20T07:26:05;99223.09;;;17.64;65.22
50310;BME280;36207;51.850;21.698;2023-07-20T07:28:31;99227.60;;;17.66;65.31
50310;BME280;36207;51.850;21.698;2023-07-20T07:30:58;99228.67;;;17.69;65.17
50310;BME280;36207;51.850;21.698;2023-07-20T07:33:24;99228.66;;;17.71;65.27
50310;BME280;36207;51.850;21.698;2023-07-20T07:35:53;99225.43;;;17.75;65.81
50310;BME280;36207;51.850;21.698;2023-07-20T07:38:19;99223.66;;;17.79;65.56
50310;BME280;36207;51.850;21.698;2023-07-20T07:40:46;99225.32;;;17.83;65.64
50310;BME280;36207;51.850;21.698;2023-07-20T07:43:12;99232.06;;;17.85;65.57
50310;BME280;36207;51.850;21.698;2023-07-20T07:45:40;99234.92;;;17.88;65.54
50310;BME280;36207;51.850;21.698;2023-07-20T07:48:06;99236.02;;;17.91;65.60
50310;BME280;36207;51.850;21.698;2023-07-20T07:50:33;99242.42;;;17.92;65.74
50310;BME280;36207;51.850;21.698;2023-07-20T07:52:59;99245.86;;;17.94;65.76
50310;BME280;36207;51.850;21.698;2023-07-20T07:55:25;99249.52;;;17.96;65.63
50310;BME280;36207;51.850;21.698;2023-07-20T07:57:55;99249.91;;;17.98;65.64
50310;BME280;36207;51.850;21.698;2023-07-20T08:00:21;99251.74;;;18.01;65.64
50310;BME280;36207;51.850;21.698;2023-07-20T08:02:47;99258.42;;;18.06;65.60
50310;BME280;36207;51.850;21.698;2023-07-20T08:05:16;99260.35;;;18.08;65.51
50310;BME280;36207;51.850;21.698;2023-07-20T08:07:42;99257.70;;;18.08;65.45
50310;BME280;36207;51.850;21.698;2023-07-20T08:10:09;99260.21;;;18.07;65.30
50310;BME280;36207;51.850;21.698;2023-07-20T08:12:35;99267.23;;;18.06;65.35
50310;BME280;36207;51.850;21.698;2023-07-20T08:15:02;99269.89;;;18.07;65.25
50310;BME280;36207;51.850;21.698;2023-07-20T08:17:28;99269.79;;;18.11;65.80
50310;BME280;36207;51.850;21.698;2023-07-20T08:19:54;99273.09;;;18.18;65.76
50310;BME280;36207;51.850;21.698;2023-07-20T08:22:23;99276.07;;;18.22;65.74
50310;BME280;36207;51.850;21.698;2023-07-20T08:24:49;99281.49;;;18.28;65.78
50310;BME280;36207;51.850;21.698;2023-07-20T08:27:15;99281.02;;;18.34;65.73
50310;BME280;36207;51.850;21.698;2023-07-20T08:29:41;99282.02;;;18.38;65.56
50310;BME280;36207;51.850;21.698;2023-07-20T08:32:08;99283.02;;;18.40;65.58
50310;BME280;36207;51.850;21.698;2023-07-20T08:34:34;99278.77;;;18.42;65.45
50310;BME280;36207;51.850;21.698;2023-07-20T08:37:00;99281.55;;;18.43;65.31
50310;BME280;36207;51.850;21.698;2023-07-20T08:39:25;99285.14;;;18.45;65.16
50310;BME280;36207;51.850;21.698;2023-07-20T08:41:51;99284.52;;;18.46;65.17
50310;BME280;36207;51.850;21.698;2023-07-20T08:44:18;99284.66;;;18.48;65.12
50310;BME280;36207;51.850;21.698;2023-07-20T08:46:45;99289.55;;;18.50;64.98
50310;BME280;36207;51.850;21.698;2023-07-20T08:49:13;99290.02;;;18.52;64.92
50310;BME280;36207;51.850;21.698;2023-07-20T08:51:42;99291.15;;;18.56;65.25
50310;BME280;36207;51.850;21.698;2023-07-20T08:54:09;99295.23;;;18.58;65.33
50310;BME280;36207;51.850;21.698;2023-07-20T08:56:37;99298.67;;;18.57;65.23
50310;BME280;36207;51.850;21.698;2023-07-20T08:59:03;99308.92;;;18.55;65.12
50310;BME280;36207;51.850;21.698;2023-07-20T09:01:31;99313.86;;;18.51;65.00
50310;BME280;36207;51.850;21.698;2023-07-20T09:03:57;99316.33;;;18.50;64.97
50310;BME280;36207;51.850;21.698;2023-07-20T09:06:23;99317.86;;;18.48;65.31
50310;BME280;36207;51.850;21.698;2023-07-20T09:08:49;99318.02;;;18.48;65.45
50310;BME280;36207;51.850;21.698;2023-07-20T09:11:15;99321.25;;;18.47;65.33
50310;BME280;36207;51.850;21.698;2023-07-20T09:13:41;99327.12;;;18.45;65.34
50310;BME280;36207;51.850;21.698;2023-07-20T09:16:08;99331.14;;;18.40;65.20
50310;BME280;36207;51.850;21.698;2023-07-20T09:18:39;99334.52;;;18.35;65.55
50310;BME280;36207;51.850;21.698;2023-07-20T09:21:05;99339.20;;;18.30;65.51
50310;BME280;36207;51.850;21.698;2023-07-20T09:23:33;99334.33;;;18.29;65.69
50310;BME280;36207;51.850;21.698;2023-07-20T09:26:00;99336.34;;;18.29;65.88
50310;BME280;36207;51.850;21.698;2023-07-20T09:28:26;99334.00;;;18.32;66.19
50310;BME280;36207;51.850;21.698;2023-07-20T09:30:56;99334.04;;;18.35;66.20
50310;BME280;36207;51.850;21.698;2023-07-20T09:33:24;99336.64;;;18.39;66.30
50310;BME280;36207;51.850;21.698;2023-07-20T09:35:50;99339.59;;;18.44;66.66
50310;BME280;36207;51.850;21.698;2023-07-20T09:38:16;99343.64;;;18.51;66.75
50310;BME280;36207;51.850;21.698;2023-07-20T09:40:42;99344.51;;;18.55;66.42
50310;BME280;36207;51.850;21.698;2023-07-20T09:43:09;99339.88;;;18.56;66.66
50310;BME280;36207;51.850;21.698;2023-07-20T09:45:40;99343.19;;;18.58;66.55
50310;BME280;36207;51.850;21.698;2023-07-20T09:48:10;99346.81;;;18.61;66.76
50310;BME280;36207;51.850;21.698;2023-07-20T09:50:43;99346.61;;;18.66;66.85
50310;BME280;36207;51.850;21.698;2023-07-20T09:53:14;99347.65;;;18.69;66.63
50310;BME280;36207;51.850;21.698;2023-07-20T09:55:47;99353.13;;;18.71;66.62
50310;BME280;36207;51.850;21.698;2023-07-20T09:58:14;99354.36;;;18.71;66.83
50310;BME280;36207;51.850;21.698;2023-07-20T10:00:41;99352.58;;;18.70;66.70
50310;BME280;36207;51.850;21.698;2023-07-20T10:03:19;99352.88;;;18.69;66.66
50310;BME280;36207;51.850;21.698;2023-07-20T10:05:54;99349.49;;;18.70;66.89
50310;BME280;36207;51.850;21.698;2023-07-20T10:08:25;99346.34;;;18.73;66.76
50310;BME280;36207;51.850;21.698;2023-07-20T10:10:51;99344.84;;;18.77;66.93
50310;BME280;36207;51.850;21.698;2023-07-20T10:13:20;99351.35;;;18.80;66.84
50310;BME280;36207;51.850;21.698;2023-07-20T10:15:50;99349.95;;;18.82;66.70
50310;BME280;36207;51.850;21.698;2023-07-20T10:18:28;99349.59;;;18.83;66.75
50310;BME280;36207;51.850;21.698;2023-07-20T10:20:55;99352.39;;;18.82;66.84
50310;BME280;36207;51.850;21.698;2023-07-20T10:23:22;99353.35;;;18.81;66.73
50310;BME280;36207;51.850;21.698;2023-07-20T10:25:50;99355.60;;;18.80;66.69
50310;BME280;36207;51.850;21.698;2023-07-20T10:28:16;99359.96;;;18.78;66.51
50310;BME280;36207;51.850;21.698;2023-07-20T10:30:43;99362.18;;;18.79;66.52
50310;BME280;36207;51.850;21.698;2023-07-20T10:33:10;99364.67;;;18.82;66.85
50310;BME280;36207;51.850;21.698;2023-07-20T10:35:56;99363.81;;;18.87;66.73
50310;BME280;36207;51.850;21.698;2023-07-20T10:41:23;99356.29;;;18.98;66.79
50310;BME280;36207;51.850;21.698;2023-07-20T10:44:01;99358.86;;;19.08;66.96
50310;BME280;36207;51.850;21.698;2023-07-20T10:46:44;99357.02;;;19.25;67.04
50310;BME280;36207;51.850;21.698;2023-07-20T10:49:11;99354.99;;;19.37;66.76
50310;BME280;36207;51.850;21.698;2023-07-20T10:51:45;99353.41;;;19.50;67.06
50310;BME280;36207;51.850;21.698;2023-07-20T10:56:41;99351.80;;;19.79;66.53
50310;BME280;36207;51.850;21.698;2023-07-20T10:59:17;99348.61;;;19.92;67.04
50310;BME280;36207;51.850;21.698;2023-07-20T11:01:47;99346.44;;;20.10;67.04
50310;BME280;36207;51.850;21.698;2023-07-20T11:04:17;99349.42;;;20.30;66.77
50310;BME280;36207;51.850;21.698;2023-07-20T11:06:54;99346.25;;;20.39;66.36
50310;BME280;36207;51.850;21.698;2023-07-20T11:09:22;99343.44;;;20.47;65.98
50310;BME280;36207;51.850;21.698;2023-07-20T11:12:11;99343.09;;;20.58;66.30
50310;BME280;36207;51.850;21.698;2023-07-20T11:14:53;99346.31;;;20.68;66.05
50310;BME280;36207;51.850;21.698;2023-07-20T11:17:20;99347.89;;;20.68;65.42
50310;BME280;36207;51.850;21.698;2023-07-20T11:19:48;99345.05;;;20.67;65.14
50310;BME280;36207;51.850;21.698;2023-07-20T11:22:19;99342.57;;;20.69;65.32
50310;BME280;36207;51.850;21.698;2023-07-20T11:24:45;99340.89;;;20.78;65.54
50310;BME280;36207;51.850;21.698;2023-07-20T11:27:11;99338.33;;;20.86;65.43
50310;BME280;36207;51.850;21.698;2023-07-20T11:29:38;99341.17;;;20.90;64.97
50310;BME280;36207;51.850;21.698;2023-07-20T11:32:04;99333.98;;;20.95;65.10
50310;BME280;36207;51.850;21.698;2023-07-20T11:34:31;99332.09;;;20.98;64.64
50310;BME280;36207;51.850;21.698;2023-07-20T11:36:58;99334.35;;;20.94;64.46
50310;BME280;36207;51.850;21.698;2023-07-20T11:39:25;99340.66;;;20.86;64.67
50310;BME280;36207;51.850;21.698;2023-07-20T11:41:53;99334.55;;;20.81;64.79
50310;BME280;36207;51.850;21.698;2023-07-20T11:44:25;99330.84;;;20.77;64.69
50310;BME280;36207;51.850;21.698;2023-07-20T11:47:24;99333.12;;;20.76;64.62
50310;BME280;36207;51.850;21.698;2023-07-20T11:49:54;99334.67;;;20.72;64.60
50310;BME280;36207;51.850;21.698;2023-07-20T11:52:23;99338.11;;;20.68;64.40
50310;BME280;36207;51.850;21.698;2023-07-20T11:54:49;99334.73;;;20.64;64.50
50310;BME280;36207;51.850;21.698;2023-07-20T11:57:19;99333.13;;;20.61;64.25
50310;BME280;36207;51.850;21.698;2023-07-20T11:59:58;99328.02;;;20.58;64.38
50310;BME280;36207;51.850;21.698;2023-07-20T12:02:27;99328.42;;;20.55;64.60
50310;BME280;36207;51.850;21.698;2023-07-20T12:04:54;99326.86;;;20.49;64.03
50310;BME280;36207;51.850;21.698;2023-07-20T12:07:21;99324.98;;;20.45;64.09
50310;BME280;36207;51.850;21.698;2023-07-20T12:10:12;99322.18;;;20.41;63.93
50310;BME280;36207;51.850;21.698;2023-07-20T12:12:42;99324.55;;;20.39;64.34
50310;BME280;36207;51.850;21.698;2023-07-20T12:15:27;99324.21;;;20.38;64.29
50310;BME280;36207;51.850;21.698;2023-07-20T12:18:00;99327.03;;;20.37;64.40
50310;BME280;36207;51.850;21.698;2023-07-20T12:20:28;99327.20;;;20.38;64.49
50310;BME280;36207;51.850;21.698;2023-07-20T12:23:02;99327.05;;;20.47;64.36
50310;BME280;36207;51.850;21.698;2023-07-20T12:25:40;99327.14;;;20.57;64.03
50310;BME280;36207;51.850;21.698;2023-07-20T12:28:14;99323.64;;;20.69;64.13
50310;BME280;36207;51.850;21.698;2023-07-20T12:30:41;99322.98;;;20.88;63.93
50310;BME280;36207;51.850;21.698;2023-07-20T12:33:08;99315.20;;;21.08;64.28
50310;BME280;36207;51.850;21.698;2023-07-20T12:35:34;99313.15;;;21.27;63.92
50310;BME280;36207;51.850;21.698;2023-07-20T12:38:00;99313.00;;;21.42;63.29
50310;BME280;36207;51.850;21.698;2023-07-20T12:40:27;99307.98;;;21.52;63.18
50310;BME280;36207;51.850;21.698;2023-07-20T12:42:53;99299.85;;;21.60;62.75
50310;BME280;36207;51.850;21.698;2023-07-20T12:45:19;99294.77;;;21.68;63.10
50310;BME280;36207;51.850;21.698;2023-07-20T12:47:45;99289.05;;;21.79;62.47
50310;BME280;36207;51.850;21.698;2023-07-20T12:50:11;99288.80;;;21.88;62.57
50310;BME280;36207;51.850;21.698;2023-07-20T12:52:39;99293.37;;;21.98;62.68
50310;BME280;36207;51.850;21.698;2023-07-20T12:55:06;99294.51;;;22.07;62.22
50310;BME280;36207;51.850;21.698;2023-07-20T12:57:34;99282.88;;;22.15;62.47
50310;BME280;36207;51.850;21.698;2023-07-20T13:00:02;99276.20;;;22.22;62.53
50310;BME280;36207;51.850;21.698;2023-07-20T13:02:30;99271.52;;;22.29;62.49
50310;BME280;36207;51.850;21.698;2023-07-20T13:04:59;99270.36;;;22.35;62.34
50310;BME280;36207;51.850;21.698;2023-07-20T13:07:36;99272.70;;;22.36;61.99
50310;BME280;36207;51.850;21.698;2023-07-20T13:10:03;99275.42;;;22.36;61.66